Time;durP1;ratioP1;P1;durP2;ratioP2;P2;SDS_P1;SDS_P2;PMS_P1;PMS_P2;Temp;Humidity;BMP_temperature;BMP_pressure;BME280_temperature;BME280_humidity;BME280_pressure;Samples;Min_cycle;Max_cycle;Signal;HPM_P1;HPM_P2
2022/01/17 00:02:18;;;;;;;20.67;17.63;;;;;;;;;;4987784;28;20107;-70
2022/01/17 00:04:45;;;;;;;19.38;17.35;;;;;;;;;;4979367;28;20038;-69
2022/01/17 00:07:10;;;;;;;20.95;18.40;;;;;;;;;;4973201;28;20122;-71
2022/01/17 00:09:36;;;;;;;21.73;17.30;;;;;;;;;;4981638;28;20542;-71
2022/01/17 00:12:02;;;;;;;19.55;17.30;;;;;;;;;;4986570;28;20414;-71
2022/01/17 00:14:34;;;;;;;21.20;18.60;;;;;;;;;;4971713;28;20039;-71
2022/01/17 00:17:38;;;;;;;19.52;17.35;;;;;;;;;;4972894;28;20122;-71
2022/01/17 00:19:54;;;;;;;19.38;17.27;;;;;;;;;;4983128;28;20133;-71
2022/01/17 00:22:21;;;;;;;19.80;17.37;;;;;;;;;;4984906;28;20038;-71
2022/01/17 00:24:47;;;;;;;19.25;17.23;;;;;;;;;;4975877;28;20381;-71
2022/01/17 00:27:14;;;;;;;22.42;18.33;;;;;;;;;;4976735;28;20049;-72
2022/01/17 00:29:42;;;;;;;20.33;18.15;;;;;;;;;;4991153;28;20037;-71
2022/01/17 00:32:08;;;;;;;24.15;19.13;;;;;;;;;;4973048;28;20101;-71
2022/01/17 00:34:33;;;;;;;23.75;19.88;;;;;;;;;;4978182;28;20046;-71
2022/01/17 00:36:59;;;;;;;23.63;19.70;;;;;;;;;;4994210;28;20034;-72
2022/01/17 00:39:25;;;;;;;21.60;19.25;;;;;;;;;;4985629;28;20347;-71
2022/01/17 00:41:51;;;;;;;23.45;18.90;;;;;;;;;;4979047;28;20106;-70
2022/01/17 00:44:21;;;;;;;21.30;19.00;;;;;;;;;;4982538;28;20030;-71
2022/01/17 00:46:48;;;;;;;19.83;17.73;;;;;;;;;;4996969;28;20046;-71
2022/01/17 00:49:14;;;;;;;22.35;18.50;;;;;;;;;;4975016;28;20085;-71
2022/01/17 00:51:40;;;;;;;20.67;18.38;;;;;;;;;;4988416;28;20046;-71
2022/01/17 00:54:05;;;;;;;24.55;21.80;;;;;;;;;;4990941;28;20510;-70
2022/01/17 00:56:31;;;;;;;24.38;21.08;;;;;;;;;;4995729;28;20042;-71
2022/01/17 00:58:56;;;;;;;21.17;18.08;;;;;;;;;;4986613;28;20485;-71
2022/01/17 01:01:22;;;;;;;24.17;21.15;;;;;;;;;;4983787;28;20470;-71
2022/01/17 01:03:48;;;;;;;20.75;18.65;;;;;;;;;;4983928;28;20490;-71
2022/01/17 01:06:14;;;;;;;21.55;19.20;;;;;;;;;;4984303;28;20414;-70
2022/01/17 01:08:40;;;;;;;21.00;18.83;;;;;;;;;;4986302;28;20122;-71
2022/01/17 01:11:06;;;;;;;22.05;19.67;;;;;;;;;;5000890;28;20120;-72
2022/01/17 01:13:32;;;;;;;22.17;19.85;;;;;;;;;;4979411;28;20537;-70
2022/01/17 01:29:11;;;;;;;20.90;18.42;;;;;;;;;;4989894;28;20037;-73
2022/01/17 01:31:45;;;;;;;21.38;18.63;;;;;;;;;;4981089;28;20039;-70
2022/01/17 01:34:12;;;;;;;20.60;18.52;;;;;;;;;;4974113;28;20038;-69
2022/01/17 01:36:41;;;;;;;22.33;18.90;;;;;;;;;;4997839;28;20544;-71
2022/01/17 01:39:07;;;;;;;21.98;18.67;;;;;;;;;;4984083;28;20411;-71
2022/01/17 01:41:42;;;;;;;22.23;19.27;;;;;;;;;;4982435;28;20553;-69
2022/01/17 01:44:16;;;;;;;22.42;18.67;;;;;;;;;;4989405;28;20113;-72
2022/01/17 01:46:43;;;;;;;21.35;19.02;;;;;;;;;;4977567;28;20133;-72
2022/01/17 01:49:09;;;;;;;21.08;17.98;;;;;;;;;;4965272;28;20193;-70
2022/01/17 01:51:35;;;;;;;26.98;18.63;;;;;;;;;;4985150;28;20485;-72
2022/01/17 01:54:02;;;;;;;21.75;19.00;;;;;;;;;;4987234;28;20052;-71
2022/01/17 01:56:27;;;;;;;24.35;20.83;;;;;;;;;;4975435;28;20038;-70
2022/01/17 01:58:53;;;;;;;24.23;20.55;;;;;;;;;;4978458;28;20104;-71
2022/01/17 02:01:19;;;;;;;22.58;20.08;;;;;;;;;;4999572;28;20473;-71
2022/01/17 02:03:44;;;;;;;25.25;19.98;;;;;;;;;;4975079;28;20046;-71
2022/01/17 02:06:10;;;;;;;24.38;19.48;;;;;;;;;;4971129;28;20538;-72
2022/01/17 02:08:36;;;;;;;29.42;20.85;;;;;;;;;;4997212;28;20089;-71
2022/01/17 02:11:01;;;;;;;26.13;21.27;;;;;;;;;;4987099;28;20474;-71
2022/01/17 02:13:27;;;;;;;28.80;20.65;;;;;;;;;;4970950;28;20043;-71
2022/01/17 02:16:04;;;;;;;22.77;20.08;;;;;;;;;;4987944;28;20125;-71
2022/01/17 02:18:31;;;;;;;24.55;20.48;;;;;;;;;;4984771;28;20557;-70
2022/01/17 02:21:11;;;;;;;28.10;21.83;;;;;;;;;;4984732;28;20081;-71
2022/01/17 02:23:38;;;;;;;23.15;20.10;;;;;;;;;;4982934;28;20795;-72
2022/01/17 02:26:04;;;;;;;23.23;20.35;;;;;;;;;;4989328;28;20069;-71
2022/01/17 02:28:33;;;;;;;24.55;20.92;;;;;;;;;;4987426;28;20057;-71
2022/01/17 02:31:00;;;;;;;26.17;20.75;;;;;;;;;;4988681;28;20497;-72
2022/01/17 02:33:27;;;;;;;27.67;22.50;;;;;;;;;;4973282;28;20092;-71
2022/01/17 02:35:53;;;;;;;22.48;19.45;;;;;;;;;;4992633;28;20521;-71
2022/01/17 02:38:20;;;;;;;23.77;20.50;;;;;;;;;;4976069;28;20450;-71
2022/01/17 02:40:45;;;;;;;23.50;20.17;;;;;;;;;;4981885;28;20104;-69
2022/01/17 02:43:13;;;;;;;26.08;23.25;;;;;;;;;;4991677;28;20034;-71
2022/01/17 02:48:32;;;;;;;26.55;19.85;;;;;;;;;;4947157;28;20054;-71
2022/01/17 02:50:59;;;;;;;23.83;19.27;;;;;;;;;;4984093;28;20232;-72
2022/01/17 02:53:25;;;;;;;27.73;21.70;;;;;;;;;;4984715;28;20319;-71
2022/01/17 02:55:57;;;;;;;24.52;21.23;;;;;;;;;;4985458;28;20117;-71
2022/01/17 02:58:26;;;;;;;23.77;21.08;;;;;;;;;;4990691;28;20029;-71
2022/01/17 03:00:53;;;;;;;23.10;19.45;;;;;;;;;;4991660;28;20030;-71
2022/01/17 03:03:22;;;;;;;23.52;20.23;;;;;;;;;;4976147;28;20042;-72
2022/01/17 03:05:48;;;;;;;23.05;20.48;;;;;;;;;;4976729;28;20113;-71
2022/01/17 03:08:20;;;;;;;24.90;19.85;;;;;;;;;;4992011;28;20125;-71
2022/01/17 03:10:49;;;;;;;23.27;19.60;;;;;;;;;;4972394;28;20030;-71
2022/01/17 03:13:21;;;;;;;23.30;19.80;;;;;;;;;;4978223;28;20030;-72
2022/01/17 03:16:09;;;;;;;24.90;19.52;;;;;;;;;;4984621;28;20462;-70
2022/01/17 03:18:39;;;;;;;20.58;18.48;;;;;;;;;;4989276;28;20092;-71
2022/01/17 03:21:04;;;;;;;;;;;;;;;;;;4986648;28;20051;-71
2022/01/17 03:23:30;;;;;;;20.08;17.95;;;;;;;;;;4985630;28;19913;-71
2022/01/17 03:25:56;;;;;;;21.67;18.17;;;;;;;;;;4993751;28;20037;-71
2022/01/17 03:28:22;;;;;;;24.00;20.10;;;;;;;;;;4979979;28;20046;-71
2022/01/17 03:30:48;;;;;;;25.42;19.98;;;;;;;;;;4969888;28;20038;-71
2022/01/17 03:33:17;;;;;;;24.20;20.95;;;;;;;;;;4973178;28;20180;-71
2022/01/17 03:35:44;;;;;;;24.73;21.33;;;;;;;;;;4992311;28;20042;-71
2022/01/17 03:38:12;;;;;;;25.52;21.58;;;;;;;;;;4983893;28;20220;-71
2022/01/17 03:40:38;;;;;;;26.67;20.17;;;;;;;;;;4975227;28;20043;-70
2022/01/17 03:43:05;;;;;;;25.90;20.38;;;;;;;;;;4975631;28;20448;-71
2022/01/17 03:45:31;;;;;;;22.92;20.15;;;;;;;;;;4993710;28;20034;-71
2022/01/17 03:47:57;;;;;;;23.35;18.85;;;;;;;;;;4973033;28;20081;-71
2022/01/17 03:50:27;;;;;;;24.80;20.42;;;;;;;;;;4994093;28;20070;-71
2022/01/17 03:52:53;;;;;;;21.77;19.45;;;;;;;;;;4982796;28;20385;-70
2022/01/17 03:55:21;;;;;;;23.90;19.75;;;;;;;;;;4981840;28;20113;-71
2022/01/17 03:57:47;;;;;;;25.52;19.90;;;;;;;;;;4968943;28;20037;-71
2022/01/17 04:00:19;;;;;;;22.02;19.20;;;;;;;;;;4987161;28;20037;-71
2022/01/17 04:02:45;;;;;;;29.95;22.23;;;;;;;;;;4989256;28;20126;-71
2022/01/17 04:05:11;;;;;;;29.48;19.13;;;;;;;;;;4990201;28;20031;-71
2022/01/17 04:07:36;;;;;;;27.85;21.50;;;;;;;;;;4990996;28;20041;-70
2022/01/17 04:10:03;;;;;;;25.73;19.55;;;;;;;;;;4977789;28;20466;-70
2022/01/17 04:12:28;;;;;;;24.98;19.27;;;;;;;;;;4982948;28;20517;-70
2022/01/17 04:14:55;;;;;;;26.30;18.80;;;;;;;;;;4988763;28;20038;-72
2022/01/17 04:17:29;;;;;;;26.48;20.08;;;;;;;;;;4987968;28;20490;-72
2022/01/17 04:20:05;;;;;;;29.60;20.65;;;;;;;;;;4987683;28;20088;-72
2022/01/17 04:22:38;;;;;;;27.05;20.23;;;;;;;;;;4984144;28;20070;-72
2022/01/17 04:25:06;;;;;;;29.27;21.80;;;;;;;;;;4988277;28;20043;-71
2022/01/17 04:27:32;;;;;;;26.63;19.42;;;;;;;;;;4983670;28;20074;-72
2022/01/17 04:29:59;;;;;;;30.52;20.98;;;;;;;;;;4978177;28;20486;-72
2022/01/17 04:32:25;;;;;;;27.77;19.77;;;;;;;;;;4990326;28;20037;-71
2022/01/17 04:34:51;;;;;;;26.88;21.02;;;;;;;;;;4989539;28;20034;-71
2022/01/17 04:37:17;;;;;;;24.75;20.23;;;;;;;;;;4972738;28;20062;-71
2022/01/17 04:39:42;;;;;;;29.40;23.02;;;;;;;;;;4985650;28;20033;-71
2022/01/17 04:42:12;;;;;;;29.85;21.38;;;;;;;;;;4986164;28;20039;-72
2022/01/17 04:47:31;;;;;;;27.08;18.92;;;;;;;;;;4986077;28;20041;-72
2022/01/17 04:49:57;;;;;;;26.90;20.30;;;;;;;;;;4989767;28;20418;-70
2022/01/17 04:52:24;;;;;;;22.30;18.13;;;;;;;;;;4969349;28;20034;-71
2022/01/17 04:54:54;;;;;;;27.30;19.65;;;;;;;;;;4988418;28;20394;-72
2022/01/17 04:57:21;;;;;;;27.20;19.70;;;;;;;;;;4974319;28;20115;-72
2022/01/17 04:59:48;;;;;;;29.65;19.15;;;;;;;;;;4984150;28;20485;-71
2022/01/17 05:02:14;;;;;;;28.67;19.73;;;;;;;;;;4997335;28;20032;-71
2022/01/17 05:04:39;;;;;;;25.33;18.55;;;;;;;;;;4978546;28;20034;-72
2022/01/17 05:07:06;;;;;;;31.25;19.38;;;;;;;;;;4980412;28;20049;-71
2022/01/17 05:09:32;;;;;;;25.95;18.27;;;;;;;;;;4994759;28;20048;-71
2022/01/17 05:11:58;;;;;;;26.05;19.08;;;;;;;;;;4988942;28;20038;-71
2022/01/17 05:14:25;;;;;;;29.95;21.05;;;;;;;;;;4976139;28;20410;-71
2022/01/17 05:16:58;;;;;;;28.08;20.08;;;;;;;;;;4978498;28;20026;-71
2022/01/17 05:22:08;;;;;;;30.75;21.02;;;;;;;;;;4986861;28;20034;-71
2022/01/17 05:24:34;;;;;;;28.60;20.33;;;;;;;;;;4979706;28;20085;-72
2022/01/17 05:26:59;;;;;;;26.77;19.38;;;;;;;;;;4990507;28;20084;-69
2022/01/17 05:29:25;;;;;;;29.17;20.17;;;;;;;;;;4995960;28;20042;-71
2022/01/17 05:31:51;;;;;;;29.63;19.67;;;;;;;;;;4976139;28;20037;-71
2022/01/17 05:34:16;;;;;;;26.00;17.75;;;;;;;;;;4995860;28;20058;-72
2022/01/17 05:36:42;;;;;;;27.75;19.40;;;;;;;;;;4980079;28;20042;-72
2022/01/17 05:39:07;;;;;;;28.65;20.27;;;;;;;;;;4981111;28;20426;-71
2022/01/17 05:41:33;;;;;;;26.80;19.02;;;;;;;;;;4987273;28;20118;-71
2022/01/17 05:43:59;;;;;;;26.17;17.75;;;;;;;;;;4993428;28;20049;-74
2022/01/17 05:46:24;;;;;;;26.77;19.95;;;;;;;;;;4982708;28;20042;-71
2022/01/17 05:48:50;;;;;;;30.55;20.38;;;;;;;;;;4969408;28;20418;-70
2022/01/17 05:51:16;;;;;;;26.58;19.20;;;;;;;;;;4963375;28;20038;-71
2022/01/17 05:53:41;;;;;;;22.05;17.88;;;;;;;;;;4988774;28;20081;-71
2022/01/17 05:56:07;;;;;;;31.77;19.42;;;;;;;;;;4988410;28;20065;-72
2022/01/17 05:58:33;;;;;;;24.60;17.17;;;;;;;;;;4990845;28;20038;-70
2022/01/17 06:00:58;;;;;;;19.58;17.38;;;;;;;;;;4989150;28;20544;-70
2022/01/17 06:03:25;;;;;;;21.70;16.30;;;;;;;;;;4999089;28;20065;-72
2022/01/17 06:05:52;;;;;;;22.15;17.58;;;;;;;;;;4988918;28;20497;-71
2022/01/17 06:08:18;;;;;;;23.88;18.10;;;;;;;;;;4996289;28;20057;-69
2022/01/17 06:10:43;;;;;;;23.92;18.95;;;;;;;;;;4990654;28;20034;-70
2022/01/17 06:13:09;;;;;;;19.33;16.60;;;;;;;;;;4999798;28;20038;-70
2022/01/17 06:15:35;;;;;;;27.88;17.70;;;;;;;;;;4990734;28;20395;-70
2022/01/17 06:18:00;;;;;;;20.60;16.35;;;;;;;;;;4988504;28;20129;-70
2022/01/17 06:20:26;;;;;;;22.75;17.73;;;;;;;;;;4981780;28;20082;-70
2022/01/17 06:22:51;;;;;;;20.25;17.30;;;;;;;;;;4987303;28;20431;-70
2022/01/17 06:25:17;;;;;;;19.20;16.77;;;;;;;;;;4988617;28;20034;-69
2022/01/17 06:27:43;;;;;;;26.33;17.52;;;;;;;;;;4988258;28;20041;-70
2022/01/17 06:30:08;;;;;;;21.52;17.45;;;;;;;;;;4991740;28;20041;-71
2022/01/17 06:32:34;;;;;;;23.90;18.77;;;;;;;;;;4995166;28;20461;-70
2022/01/17 06:35:03;;;;;;;30.33;19.77;;;;;;;;;;4988054;28;20042;-70
2022/01/17 06:37:29;;;;;;;22.60;18.15;;;;;;;;;;4988838;28;20124;-70
2022/01/17 06:39:55;;;;;;;25.35;18.30;;;;;;;;;;4989919;28;20105;-71
2022/01/17 06:42:22;;;;;;;21.05;17.33;;;;;;;;;;4993105;28;20069;-70
2022/01/17 06:44:48;;;;;;;23.00;18.00;;;;;;;;;;4987722;28;20038;-70
2022/01/17 06:47:14;;;;;;;20.23;16.80;;;;;;;;;;4991632;28;20022;-71
2022/01/17 06:49:40;;;;;;;21.70;17.77;;;;;;;;;;4998651;28;20147;-70
2022/01/17 06:52:06;;;;;;;23.95;17.77;;;;;;;;;;4983220;28;20042;-70
2022/01/17 06:54:31;;;;;;;22.75;17.70;;;;;;;;;;4976525;28;20038;-70
2022/01/17 06:56:57;;;;;;;22.55;18.25;;;;;;;;;;4990184;28;20318;-70
2022/01/17 06:59:22;;;;;;;23.08;18.38;;;;;;;;;;4985099;28;20478;-70
2022/01/17 07:01:48;;;;;;;25.65;19.08;;;;;;;;;;4996298;28;20346;-70
2022/01/17 07:04:14;;;;;;;24.27;18.48;;;;;;;;;;4986597;28;20520;-70
2022/01/17 07:06:40;;;;;;;26.70;19.77;;;;;;;;;;4991291;28;20553;-69
2022/01/17 07:09:09;;;;;;;21.83;18.58;;;;;;;;;;4988564;28;20038;-69
2022/01/17 07:11:39;;;;;;;26.92;19.45;;;;;;;;;;4988228;28;20390;-69
2022/01/17 07:14:11;;;;;;;30.35;21.00;;;;;;;;;;4994236;28;20060;-69
2022/01/17 07:16:41;;;;;;;24.70;19.77;;;;;;;;;;4997243;28;20062;-68
2022/01/17 07:19:08;;;;;;;25.80;18.35;;;;;;;;;;4987916;28;20482;-68
2022/01/17 07:21:34;;;;;;;29.75;18.40;;;;;;;;;;4989307;28;20045;-68
2022/01/17 07:24:00;;;;;;;21.60;17.08;;;;;;;;;;4989341;28;20038;-68
2022/01/17 07:26:26;;;;;;;24.48;18.85;;;;;;;;;;4992666;28;20050;-69
2022/01/17 07:28:52;;;;;;;20.63;16.50;;;;;;;;;;4987619;28;20116;-68
2022/01/17 07:31:18;;;;;;;21.52;17.17;;;;;;;;;;4985419;28;20106;-68
2022/01/17 07:33:44;;;;;;;23.60;17.20;;;;;;;;;;4987114;28;20129;-68
2022/01/17 07:36:11;;;;;;;21.25;18.20;;;;;;;;;;4987835;28;20705;-68
2022/01/17 07:38:37;;;;;;;19.73;16.65;;;;;;;;;;4987702;28;20070;-68
2022/01/17 07:41:03;;;;;;;20.30;17.73;;;;;;;;;;4990377;28;20057;-68
2022/01/17 07:43:28;;;;;;;17.05;15.13;;;;;;;;;;4989643;28;20064;-69
2022/01/17 07:46:06;;;;;;;19.55;16.45;;;;;;;;;;4987687;28;20698;-69
2022/01/17 07:51:19;;;;;;;22.38;18.15;;;;;;;;;;4985819;28;20414;-68
2022/01/17 07:53:44;;;;;;;18.02;15.65;;;;;;;;;;4987836;28;20067;-69
2022/01/17 07:56:10;;;;;;;18.30;15.88;;;;;;;;;;4992085;28;20458;-68
2022/01/17 07:58:36;;;;;;;18.60;16.70;;;;;;;;;;4987571;28;20049;-69
2022/01/17 08:01:02;;;;;;;19.65;17.55;;;;;;;;;;4992500;28;20076;-68
2022/01/17 08:03:27;;;;;;;19.48;17.33;;;;;;;;;;4980648;28;20118;-69
2022/01/17 08:05:53;;;;;;;20.25;17.35;;;;;;;;;;4973949;28;20125;-68
2022/01/17 08:08:19;;;;;;;20.40;17.77;;;;;;;;;;4989971;28;20179;-68
2022/01/17 08:10:44;;;;;;;19.85;17.00;;;;;;;;;;4996771;28;20038;-68
2022/01/17 08:13:10;;;;;;;18.38;16.58;;;;;;;;;;4992369;28;20459;-68
2022/01/17 08:15:38;;;;;;;19.05;17.02;;;;;;;;;;4992667;28;20033;-68
2022/01/17 08:18:04;;;;;;;20.05;18.00;;;;;;;;;;5002233;28;20038;-68
2022/01/17 08:20:30;;;;;;;19.33;16.92;;;;;;;;;;4993203;28;20039;-68
2022/01/17 08:22:59;;;;;;;18.98;17.05;;;;;;;;;;4991442;28;20165;-68
2022/01/17 08:25:24;;;;;;;16.77;15.20;;;;;;;;;;5000798;28;20038;-68
2022/01/17 08:27:51;;;;;;;16.23;14.68;;;;;;;;;;4994283;28;20046;-68
2022/01/17 08:30:16;;;;;;;16.38;14.75;;;;;;;;;;4990936;28;20398;-68
2022/01/17 08:32:42;;;;;;;15.40;13.77;;;;;;;;;;4993865;28;20030;-68
2022/01/17 08:35:08;;;;;;;16.77;15.15;;;;;;;;;;4996423;28;20072;-68
2022/01/17 08:37:34;;;;;;;14.30;12.93;;;;;;;;;;4990715;28;20073;-68
2022/01/17 08:40:00;;;;;;;14.73;13.25;;;;;;;;;;4986669;28;20497;-68
2022/01/17 08:42:27;;;;;;;14.95;13.48;;;;;;;;;;4995864;28;20034;-68
2022/01/17 08:44:55;;;;;;;15.05;13.55;;;;;;;;;;4991199;28;20038;-68
2022/01/17 08:47:21;;;;;;;14.68;13.38;;;;;;;;;;4991374;28;20109;-68
2022/01/17 08:49:48;;;;;;;14.90;13.40;;;;;;;;;;4993246;28;20122;-68
2022/01/17 08:52:15;;;;;;;13.50;12.40;;;;;;;;;;4991490;28;20490;-68
2022/01/17 08:54:44;;;;;;;14.02;12.70;;;;;;;;;;4977597;28;20046;-68
2022/01/17 08:57:11;;;;;;;14.45;13.05;;;;;;;;;;4972096;28;20489;-68
2022/01/17 08:59:36;;;;;;;14.57;13.27;;;;;;;;;;4992836;28;20030;-68
2022/01/17 09:02:02;;;;;;;14.05;12.88;;;;;;;;;;4991291;28;20037;-68
2022/01/17 09:04:28;;;;;;;14.27;13.00;;;;;;;;;;4990660;28;20038;-68
2022/01/17 09:06:54;;;;;;;13.98;12.70;;;;;;;;;;4989274;28;20072;-68
2022/01/17 09:09:20;;;;;;;14.23;13.02;;;;;;;;;;4997693;28;20393;-68
2022/01/17 09:11:46;;;;;;;13.70;12.40;;;;;;;;;;4990225;28;20493;-68
2022/01/17 09:14:11;;;;;;;13.82;12.60;;;;;;;;;;4988271;28;20069;-68
2022/01/17 09:16:37;;;;;;;13.45;12.10;;;;;;;;;;4997457;28;20038;-68
2022/01/17 09:19:05;;;;;;;13.52;12.25;;;;;;;;;;4989949;28;20564;-68
2022/01/17 09:21:31;;;;;;;13.85;12.75;;;;;;;;;;4991809;28;20041;-69
2022/01/17 09:23:58;;;;;;;15.30;13.90;;;;;;;;;;4991527;28;20034;-68
2022/01/17 09:26:25;;;;;;;14.07;12.80;;;;;;;;;;4996531;28;20457;-68
2022/01/17 09:28:55;;;;;;;14.93;13.63;;;;;;;;;;4989868;28;20049;-68
2022/01/17 09:31:22;;;;;;;15.05;13.68;;;;;;;;;;4989634;28;20038;-68
2022/01/17 09:33:48;;;;;;;14.70;13.40;;;;;;;;;;4993411;28;20026;-68
2022/01/17 09:36:14;;;;;;;15.90;14.55;;;;;;;;;;4989663;28;20104;-68
2022/01/17 09:38:40;;;;;;;16.40;14.80;;;;;;;;;;4989971;28;20034;-69
2022/01/17 09:41:06;;;;;;;15.18;13.82;;;;;;;;;;4991612;28;20045;-69
2022/01/17 09:43:32;;;;;;;15.48;14.05;;;;;;;;;;4992102;28;20034;-69
2022/01/17 09:45:58;;;;;;;15.02;13.75;;;;;;;;;;4989308;28;20655;-67
2022/01/17 09:48:34;;;;;;;14.82;13.63;;;;;;;;;;4995480;28;20051;-67
2022/01/17 09:51:05;;;;;;;14.77;13.57;;;;;;;;;;4993441;28;20477;-68
2022/01/17 09:53:38;;;;;;;14.85;13.50;;;;;;;;;;4986527;28;20121;-69
2022/01/17 09:56:07;;;;;;;14.13;12.82;;;;;;;;;;4993797;28;20054;-70
2022/01/17 09:58:35;;;;;;;13.68;12.40;;;;;;;;;;4989164;28;20034;-69
2022/01/17 10:01:04;;;;;;;14.55;13.25;;;;;;;;;;4986506;28;20038;-69
2022/01/17 10:03:30;;;;;;;14.50;13.20;;;;;;;;;;5001975;28;20026;-67
2022/01/17 10:05:56;;;;;;;14.65;13.45;;;;;;;;;;4990499;28;20129;-68
2022/01/17 10:08:22;;;;;;;14.23;13.02;;;;;;;;;;4988804;28;20034;-68
2022/01/17 10:10:57;;;;;;;14.32;12.88;;;;;;;;;;4987818;28;20034;-69
2022/01/17 10:13:27;;;;;;;15.38;13.88;;;;;;;;;;4997891;28;20042;-69
2022/01/17 10:15:57;;;;;;;13.95;12.60;;;;;;;;;;4989138;28;20046;-69
2022/01/17 10:18:34;;;;;;;13.23;12.23;;;;;;;;;;4992452;28;20034;-68
2022/01/17 10:21:05;;;;;;;13.80;12.70;;;;;;;;;;4998139;28;20045;-69
2022/01/17 10:26:16;;;;;;;13.55;12.35;;;;;;;;;;4988597;28;20470;-70
2022/01/17 10:36:50;;;;;;;13.00;11.90;;;;;;;;;;4986267;28;20045;-69
2022/01/17 10:39:17;;;;;;;13.77;12.57;;;;;;;;;;4995977;28;20028;-69
2022/01/17 10:41:43;;;;;;;14.35;13.20;;;;;;;;;;4988843;28;20038;-67
2022/01/17 10:44:08;;;;;;;14.18;13.07;;;;;;;;;;4987285;28;20041;-69
2022/01/17 10:46:35;;;;;;;13.77;12.73;;;;;;;;;;4996657;28;20056;-68
2022/01/17 10:49:03;;;;;;;13.35;12.30;;;;;;;;;;4988634;28;20038;-69
2022/01/17 10:51:34;;;;;;;13.80;12.52;;;;;;;;;;4989220;28;20038;-69
2022/01/17 10:54:14;;;;;;;14.13;12.93;;;;;;;;;;4988665;28;20152;-69
2022/01/17 10:57:09;;;;;;;14.50;13.32;;;;;;;;;;4970723;28;20057;-68
2022/01/17 10:59:36;;;;;;;14.50;13.02;;;;;;;;;;4914991;29;20048;-69
2022/01/17 11:02:02;;;;;;;15.00;13.52;;;;;;;;;;4911930;29;20107;-67
2022/01/17 11:04:38;;;;;;;15.30;14.10;;;;;;;;;;4908987;29;20316;-69
2022/01/17 11:07:06;;;;;;;14.38;13.25;;;;;;;;;;4909710;29;20539;-69
2022/01/17 11:09:42;;;;;;;14.65;13.35;;;;;;;;;;4920043;29;20484;-67
2022/01/17 11:12:12;;;;;;;14.27;13.07;;;;;;;;;;4907833;29;20059;-69
2022/01/17 11:14:40;;;;;;;14.65;13.30;;;;;;;;;;4908629;29;20107;-67
2022/01/17 11:17:20;;;;;;;14.50;13.38;;;;;;;;;;4911784;29;20078;-67
2022/01/17 11:20:07;;;;;;;15.27;13.82;;;;;;;;;;4914206;29;20072;-69
2022/01/17 11:22:44;;;;;;;16.02;14.50;;;;;;;;;;4905836;29;20465;-67
2022/01/17 11:25:16;;;;;;;17.38;15.57;;;;;;;;;;4906526;29;20048;-69
2022/01/17 11:27:42;;;;;;;17.77;14.68;;;;;;;;;;4906170;29;20054;-69
2022/01/17 11:30:09;;;;;;;19.85;16.38;;;;;;;;;;4906165;29;20058;-69
2022/01/17 11:32:35;;;;;;;18.48;15.15;;;;;;;;;;4917464;29;20043;-69
2022/01/17 11:35:03;;;;;;;18.05;16.15;;;;;;;;;;4917438;28;20040;-68
2022/01/17 11:37:34;;;;;;;16.05;14.63;;;;;;;;;;4986335;28;20052;-68
2022/01/17 11:39:59;;;;;;;15.25;13.60;;;;;;;;;;4984986;28;20031;-68
2022/01/17 11:42:33;;;;;;;16.02;14.52;;;;;;;;;;4991647;28;20045;-68
2022/01/17 11:44:59;;;;;;;15.38;13.90;;;;;;;;;;4985878;28;20621;-67
2022/01/17 11:47:55;;;;;;;15.05;13.82;;;;;;;;;;4982318;28;20352;-68
2022/01/17 11:53:00;;;;;;;16.70;15.18;;;;;;;;;;4905341;29;20278;-67
2022/01/17 11:55:55;;;;;;;16.73;14.60;;;;;;;;;;4906099;29;20147;-69
2022/01/17 11:58:38;;;;;;;15.27;13.77;;;;;;;;;;4854460;29;20053;-69
2022/01/17 12:01:04;;;;;;;14.93;13.57;;;;;;;;;;4851296;29;20057;-69
2022/01/17 12:03:53;;;;;;;15.98;14.43;;;;;;;;;;4849894;29;20102;-68
2022/01/17 12:06:37;;;;;;;20.30;16.83;;;;;;;;;;4852986;29;20425;-68
2022/01/17 12:09:23;;;;;;;19.02;16.23;;;;;;;;;;4853798;29;20057;-68
2022/01/17 12:11:53;;;;;;;18.55;16.48;;;;;;;;;;4849193;29;20048;-68
2022/01/17 12:14:29;;;;;;;;;;;;;;;;;;4857055;29;20617;-68
2022/01/17 12:17:20;;;;;;;18.08;16.17;;;;;;;;;;4850693;29;20308;-68
2022/01/17 12:20:09;;;;;;;21.67;18.40;;;;;;;;;;4850618;29;20585;-68
2022/01/17 12:22:43;;;;;;;18.08;16.13;;;;;;;;;;4845449;29;20053;-68
2022/01/17 12:25:21;;;;;;;17.40;15.48;;;;;;;;;;4853832;29;20056;-68
2022/01/17 12:27:48;;;;;;;17.55;15.80;;;;;;;;;;4900597;29;20071;-68
2022/01/17 12:30:15;;;;;;;17.95;16.25;;;;;;;;;;4906260;29;20055;-68
2022/01/17 12:32:45;;;;;;;15.20;13.90;;;;;;;;;;4910497;29;20051;-69
2022/01/17 12:35:13;;;;;;;;;;;;;;;;;;4951735;28;20071;-67
2022/01/17 12:37:48;;;;;;;14.32;13.00;;;;;;;;;;4986447;28;20296;-68
2022/01/17 12:40:20;;;;;;;14.55;13.25;;;;;;;;;;4986171;28;20026;-67
2022/01/17 12:43:12;;;;;;;14.90;13.50;;;;;;;;;;4992900;28;20045;-68
2022/01/17 12:45:54;;;;;;;13.82;12.60;;;;;;;;;;4983879;28;20485;-68
2022/01/17 12:48:23;;;;;;;12.70;11.70;;;;;;;;;;4989812;28;20038;-68
2022/01/17 12:50:51;;;;;;;13.25;12.25;;;;;;;;;;4992390;28;20041;-68
2022/01/17 12:53:20;;;;;;;13.60;12.50;;;;;;;;;;4988747;28;20077;-68
2022/01/17 12:55:48;;;;;;;13.35;12.45;;;;;;;;;;4989438;28;20038;-68
2022/01/17 12:58:20;;;;;;;13.20;12.30;;;;;;;;;;4984584;28;20436;-68
2022/01/17 13:00:49;;;;;;;13.48;12.38;;;;;;;;;;4992272;28;20045;-68
2022/01/17 13:03:16;;;;;;;12.88;11.98;;;;;;;;;;4990589;28;20125;-68
2022/01/17 13:05:42;;;;;;;13.05;12.15;;;;;;;;;;4977553;28;20042;-68
2022/01/17 13:08:07;;;;;;;13.25;12.27;;;;;;;;;;4989331;28;20042;-68
2022/01/17 13:10:33;;;;;;;14.65;13.32;;;;;;;;;;5001608;28;20521;-68
2022/01/17 13:13:00;;;;;;;13.98;12.70;;;;;;;;;;4974435;28;20191;-69
2022/01/17 13:15:26;;;;;;;14.00;12.32;;;;;;;;;;4976533;28;20040;-68
2022/01/17 13:17:55;;;;;;;12.95;11.88;;;;;;;;;;4993699;28;20030;-68
2022/01/17 13:20:23;;;;;;;12.60;11.75;;;;;;;;;;4991005;28;20041;-68
2022/01/17 13:22:55;;;;;;;13.48;12.38;;;;;;;;;;4988564;28;20508;-68
2022/01/17 13:25:21;;;;;;;13.57;12.48;;;;;;;;;;4990437;28;20050;-68
2022/01/17 13:27:52;;;;;;;13.63;12.60;;;;;;;;;;4988125;28;20482;-68
2022/01/17 13:30:18;;;;;;;13.93;12.70;;;;;;;;;;4987569;28;20046;-68
2022/01/17 13:32:45;;;;;;;13.50;12.45;;;;;;;;;;4996971;28;20457;-68
2022/01/17 13:35:15;;;;;;;12.70;11.70;;;;;;;;;;4987909;28;20038;-68
2022/01/17 13:37:42;;;;;;;12.65;11.57;;;;;;;;;;4973259;28;20058;-68
2022/01/17 13:40:15;;;;;;;12.00;11.20;;;;;;;;;;4972261;28;20034;-67
2022/01/17 13:42:56;;;;;;;12.07;11.18;;;;;;;;;;4990595;28;20045;-68
2022/01/17 13:45:49;;;;;;;12.50;11.50;;;;;;;;;;4970938;28;20047;-68
2022/01/17 13:48:25;;;;;;;12.02;11.13;;;;;;;;;;4980082;28;20053;-68
2022/01/17 13:50:58;;;;;;;11.95;11.15;;;;;;;;;;4982496;28;20045;-68
2022/01/17 13:53:29;;;;;;;11.80;11.00;;;;;;;;;;4987017;28;20180;-68
2022/01/17 13:55:58;;;;;;;11.68;10.85;;;;;;;;;;4987139;28;20038;-68
2022/01/17 13:58:30;;;;;;;12.37;11.43;;;;;;;;;;4977854;28;20043;-68
2022/01/17 14:00:58;;;;;;;11.50;10.70;;;;;;;;;;4982658;28;20031;-68
2022/01/17 14:03:28;;;;;;;11.90;10.98;;;;;;;;;;4998478;28;20410;-68
2022/01/17 14:05:57;;;;;;;11.95;11.15;;;;;;;;;;4987392;28;20386;-67
2022/01/17 14:08:28;;;;;;;11.25;10.45;;;;;;;;;;4985592;28;20034;-67
2022/01/17 14:11:01;;;;;;;12.52;11.55;;;;;;;;;;4990711;28;20049;-68
2022/01/17 14:13:32;;;;;;;12.15;11.15;;;;;;;;;;4987267;28;20055;-67
2022/01/17 14:16:13;;;;;;;11.57;10.77;;;;;;;;;;4986624;28;20126;-67
2022/01/17 14:18:44;;;;;;;11.50;10.45;;;;;;;;;;4992262;28;20140;-68
2022/01/17 14:21:30;;;;;;;12.35;11.25;;;;;;;;;;4989831;28;20073;-68
2022/01/17 14:24:08;;;;;;;12.35;11.20;;;;;;;;;;4985591;28;20553;-67
2022/01/17 14:26:35;;;;;;;12.10;11.25;;;;;;;;;;4992972;28;20035;-67
2022/01/17 14:29:01;;;;;;;12.93;11.77;;;;;;;;;;4987366;28;20530;-69
2022/01/17 14:31:34;;;;;;;12.35;11.30;;;;;;;;;;4987987;28;20117;-68
2022/01/17 14:34:43;;;;;;;12.65;11.65;;;;;;;;;;4985181;28;20390;-68
2022/01/17 14:37:20;;;;;;;12.57;11.57;;;;;;;;;;4988682;28;20042;-68
2022/01/17 14:39:57;;;;;;;11.90;10.85;;;;;;;;;;4989600;28;20046;-68
2022/01/17 14:42:31;;;;;;;12.93;11.73;;;;;;;;;;4989665;28;20042;-67
2022/01/17 14:44:58;;;;;;;11.00;10.30;;;;;;;;;;4989740;28;20038;-68
2022/01/17 14:47:26;;;;;;;11.80;10.80;;;;;;;;;;4995172;28;20129;-68
2022/01/17 14:49:58;;;;;;;11.13;10.32;;;;;;;;;;4993059;28;20061;-68
2022/01/17 14:52:26;;;;;;;11.18;10.27;;;;;;;;;;4984841;28;20040;-68
2022/01/17 15:05:18;;;;;;;11.32;10.43;;;;;;;;;;4986800;28;20597;-68
2022/01/17 15:07:46;;;;;;;11.60;10.73;;;;;;;;;;4986590;28;20030;-68
2022/01/17 15:10:12;;;;;;;12.32;11.23;;;;;;;;;;4995697;28;20497;-68
2022/01/17 15:12:38;;;;;;;11.25;10.25;;;;;;;;;;4975530;28;20039;-68
2022/01/17 15:15:04;;;;;;;11.20;10.30;;;;;;;;;;4984406;28;20042;-67
2022/01/17 15:17:33;;;;;;;10.75;9.85;;;;;;;;;;4999766;28;20038;-68